Time;durP1;ratioP1;P1;durP2;ratioP2;P2;SDS_P1;SDS_P2;PMS_P1;PMS_P2;Temp;Humidity;BMP_temperature;BMP_pressure;BME280_temperature;BME280_humidity;BME280_pressure;Samples;Min_cycle;Max_cycle;Signal;HPM_P1;HPM_P2
2023/07/10 00:00:21;;;;;;;1999.90;999.90;;;21.80;99.90;;;;;;5042804;28;20754;-69
2023/07/10 00:02:49;;;;;;;1999.90;999.90;;;21.70;99.90;;;;;;5043614;28;20475;-67
2023/07/10 00:05:16;;;;;;;1999.90;999.90;;;21.90;99.90;;;;;;5044713;28;20489;-68
2023/07/10 00:07:44;;;;;;;1999.90;999.90;;;21.80;99.90;;;;;;5050922;28;20568;-69
2023/07/10 00:10:12;;;;;;;1999.90;999.90;;;21.70;99.90;;;;;;5048852;28;20481;-69
2023/07/10 00:12:40;;;;;;;1999.90;999.90;;;21.50;99.90;;;;;;5045467;28;20831;-69
2023/07/10 00:15:18;;;;;;;1999.90;999.90;;;21.40;99.90;;;;;;5051344;28;20444;-68
2023/07/10 00:17:45;;;;;;;1999.90;999.90;;;21.40;99.90;;;;;;5045228;28;20516;-69
2023/07/10 00:20:14;;;;;;;1999.90;999.90;;;21.50;99.90;;;;;;5051853;28;20405;-69
2023/07/10 00:22:41;;;;;;;1999.90;999.90;;;21.50;99.90;;;;;;5041418;28;20520;-70
2023/07/10 00:25:10;;;;;;;1999.90;999.90;;;21.40;99.90;;;;;;5050905;28;20429;-71
2023/07/10 00:27:37;;;;;;;1999.90;999.90;;;21.30;99.90;;;;;;5051861;28;20406;-71
2023/07/10 00:30:06;;;;;;;1999.90;999.90;;;21.10;99.90;;;;;;5044646;28;20974;-71
2023/07/10 00:32:32;;;;;;;1999.90;999.90;;;21.20;99.90;;;;;;5051327;28;20471;-71
2023/07/10 00:34:59;;;;;;;1999.90;999.90;;;21.30;99.90;;;;;;5048988;28;20558;-69
2023/07/10 00:37:26;;;;;;;1999.90;999.90;;;21.40;99.90;;;;;;5051212;28;20417;-68
2023/07/10 00:39:52;;;;;;;1999.90;999.90;;;21.50;99.90;;;;;;5051817;28;20810;-68
2023/07/10 00:42:24;;;;;;;1999.90;999.90;;;21.50;99.90;;;;;;5043536;28;20903;-68
2023/07/10 00:44:54;;;;;;;1999.90;999.90;;;21.50;99.90;;;;;;5042643;28;20405;-68
2023/07/10 00:47:26;;;;;;;1999.90;999.90;;;21.80;99.90;;;;;;5045025;28;20891;-70
2023/07/10 00:49:59;;;;;;;1999.90;999.90;;;21.50;99.90;;;;;;5041503;28;20413;-70
2023/07/10 00:52:28;;;;;;;1999.90;999.90;;;21.50;99.90;;;;;;5043820;28;20429;-72
2023/07/10 00:54:58;;;;;;;1999.90;999.90;;;21.50;99.90;;;;;;5042869;28;20479;-70
2023/07/10 00:57:33;;;;;;;1999.90;999.90;;;21.70;99.90;;;;;;5049287;28;20432;-71
2023/07/10 01:00:00;;;;;;;1999.90;999.90;;;21.50;99.90;;;;;;5047656;28;20760;-70
2023/07/10 01:02:27;;;;;;;1999.90;999.90;;;21.50;99.90;;;;;;5049931;28;20887;-71
2023/07/10 01:05:03;;;;;;;1999.90;999.90;;;21.80;99.90;;;;;;5049972;28;20463;-71
2023/07/10 01:07:34;;;;;;;1999.90;999.90;;;21.50;99.90;;;;;;5034177;28;20790;-70
2023/07/10 01:10:05;;;;;;;1999.90;999.90;;;21.60;99.90;;;;;;5048818;28;20992;-71
2023/07/10 01:12:34;;;;;;;1999.90;999.90;;;21.70;99.90;;;;;;5047653;28;20467;-71
2023/07/10 01:15:00;;;;;;;1999.90;999.90;;;21.60;99.90;;;;;;5050189;28;20413;-70
2023/07/10 01:17:28;;;;;;;1999.90;999.90;;;21.60;99.90;;;;;;5048011;28;20401;-71
2023/07/10 01:19:59;;;;;;;1999.90;999.90;;;21.60;99.90;;;;;;5043139;28;20409;-71
2023/07/10 01:22:28;;;;;;;1999.90;999.90;;;21.40;99.90;;;;;;5036015;28;20480;-70
2023/07/10 01:24:55;;;;;;;1999.90;999.90;;;21.50;99.90;;;;;;5042087;28;20420;-70
2023/07/10 01:27:22;;;;;;;1999.90;999.90;;;21.60;99.90;;;;;;5050769;28;20463;-71
2023/07/10 01:29:56;;;;;;;1999.90;999.90;;;21.60;99.90;;;;;;5048817;28;20483;-71
2023/07/10 01:32:27;;;;;;;1999.90;999.90;;;21.50;99.90;;;;;;5048883;28;20431;-71
2023/07/10 01:34:58;;;;;;;1999.90;999.90;;;21.50;99.90;;;;;;5041864;28;20834;-71
2023/07/10 01:37:25;;;;;;;1999.90;999.90;;;21.40;99.90;;;;;;5050422;28;20942;-71
2023/07/10 01:39:54;;;;;;;1999.90;999.90;;;21.30;99.90;;;;;;5042453;28;20429;-71
2023/07/10 01:42:21;;;;;;;1999.90;999.90;;;21.20;99.90;;;;;;5039986;28;20427;-72
2023/07/10 01:44:50;;;;;;;1999.90;999.90;;;21.30;99.90;;;;;;5047068;28;20437;-71
2023/07/10 01:47:17;;;;;;;1999.90;999.90;;;21.20;99.90;;;;;;5050054;28;20496;-72
2023/07/10 01:49:47;;;;;;;1999.90;999.90;;;21.00;99.90;;;;;;5048565;28;20429;-71
2023/07/10 01:52:16;;;;;;;1999.90;999.90;;;21.10;99.90;;;;;;5050464;28;20425;-71
2023/07/10 01:54:43;;;;;;;1999.90;999.90;;;21.10;99.90;;;;;;5047565;28;21118;-71
2023/07/10 01:57:13;;;;;;;1999.90;999.90;;;21.10;99.90;;;;;;5048117;28;20436;-69
2023/07/10 01:59:40;;;;;;;1999.90;999.90;;;21.10;99.90;;;;;;5049943;28;20417;-71
2023/07/10 02:02:08;;;;;;;1999.90;999.90;;;21.10;99.90;;;;;;5046324;28;20482;-71
2023/07/10 02:04:35;;;;;;;1999.90;999.90;;;21.10;99.90;;;;;;5049655;28;20417;-71
2023/07/10 02:07:01;;;;;;;1999.90;999.90;;;21.10;99.90;;;;;;5046764;28;20957;-70
2023/07/10 02:09:30;;;;;;;1999.90;999.90;;;21.10;99.90;;;;;;5046785;28;20784;-72
2023/07/10 02:11:57;;;;;;;1999.90;999.90;;;21.20;99.90;;;;;;5046722;28;20826;-71
2023/07/10 02:14:25;;;;;;;1999.90;999.90;;;21.40;99.90;;;;;;5049496;28;20401;-71
2023/07/10 02:16:52;;;;;;;1999.90;999.90;;;21.50;99.90;;;;;;5045856;28;20449;-71
2023/07/10 02:19:19;;;;;;;1999.90;999.90;;;21.60;99.90;;;;;;5043272;28;20433;-71
2023/07/10 02:21:46;;;;;;;1999.90;999.90;;;21.90;99.90;;;;;;5048218;28;20421;-71
2023/07/10 02:24:13;;;;;;;1999.90;999.90;;;21.90;99.90;;;;;;5042069;28;20488;-71
2023/07/10 02:26:40;;;;;;;1999.90;999.90;;;21.90;99.90;;;;;;5051764;28;20405;-70
2023/07/10 02:29:07;;;;;;;1999.90;999.90;;;21.40;99.90;;;;;;5054027;28;20462;-70
2023/07/10 02:31:35;;;;;;;1999.90;999.90;;;21.20;99.90;;;;;;5047729;28;20424;-73
2023/07/10 02:34:01;;;;;;;1999.90;999.90;;;21.40;99.90;;;;;;5051485;28;20487;-70
2023/07/10 02:36:29;;;;;;;1999.90;999.90;;;21.70;99.90;;;;;;5053762;28;20472;-71
2023/07/10 02:38:56;;;;;;;1999.90;999.90;;;22.00;99.90;;;;;;5054071;28;20878;-71
2023/07/10 02:41:23;;;;;;;1999.90;999.90;;;22.10;99.90;;;;;;5053871;28;20491;-70
2023/07/10 02:43:49;;;;;;;1999.90;999.90;;;21.70;99.90;;;;;;5047988;28;20840;-70
2023/07/10 02:46:16;;;;;;;1999.90;999.90;;;21.60;99.90;;;;;;5050235;28;20436;-72
2023/07/10 02:48:44;;;;;;;1999.90;999.90;;;21.40;99.90;;;;;;5048219;28;20429;-71
2023/07/10 02:51:11;;;;;;;1999.90;999.90;;;21.20;99.90;;;;;;5051475;28;20475;-71
2023/07/10 02:53:39;;;;;;;1999.90;999.90;;;21.10;99.90;;;;;;5052383;28;20669;-71
2023/07/10 02:56:06;;;;;;;1999.90;999.90;;;21.00;99.90;;;;;;5049318;28;20425;-71
2023/07/10 02:58:32;;;;;;;1999.90;999.90;;;20.90;99.90;;;;;;5045876;28;20787;-71
2023/07/10 03:01:01;;;;;;;1999.90;999.90;;;20.40;99.90;;;;;;5053290;28;20412;-72
2023/07/10 03:03:28;;;;;;;1999.90;999.90;;;20.40;99.90;;;;;;5052688;28;20478;-71
2023/07/10 03:05:59;;;;;;;1999.90;999.90;;;20.50;99.90;;;;;;5053155;28;20454;-73
2023/07/10 03:08:26;;;;;;;1999.90;999.90;;;20.60;99.90;;;;;;5040247;28;20442;-70
2023/07/10 03:11:00;;;;;;;1999.90;999.90;;;20.40;99.90;;;;;;5050855;28;20487;-70
2023/07/10 03:13:26;;;;;;;1999.90;999.90;;;20.40;99.90;;;;;;5052137;28;20815;-70
2023/07/10 03:16:00;;;;;;;1999.90;999.90;;;20.40;99.90;;;;;;5052885;28;20463;-71
2023/07/10 03:18:27;;;;;;;1999.90;999.90;;;20.40;99.90;;;;;;5051876;28;20416;-71
2023/07/10 03:20:54;;;;;;;1999.90;999.90;;;20.40;99.90;;;;;;5050606;28;20429;-71
2023/07/10 03:23:22;;;;;;;1999.90;999.90;;;20.50;99.90;;;;;;5051987;28;20413;-71
2023/07/10 03:25:48;;;;;;;1999.90;999.90;;;20.50;99.90;;;;;;5052969;28;20487;-73
2023/07/10 03:28:15;;;;;;;1999.90;999.90;;;20.30;99.90;;;;;;5052585;28;20409;-70
2023/07/10 03:30:42;;;;;;;1999.90;999.90;;;20.40;99.90;;;;;;5052705;28;20471;-70
2023/07/10 03:33:12;;;;;;;1999.90;999.90;;;20.30;99.90;;;;;;5043479;28;20490;-72
2023/07/10 03:35:39;;;;;;;1999.90;999.90;;;20.30;99.90;;;;;;5050454;28;20425;-71
2023/07/10 03:38:06;;;;;;;1999.90;999.90;;;20.40;99.90;;;;;;5048380;28;20487;-71
2023/07/10 03:40:34;;;;;;;1999.90;999.90;;;20.40;99.90;;;;;;5048747;28;20436;-71
2023/07/10 03:43:00;;;;;;;1999.90;999.90;;;20.50;99.90;;;;;;5031731;28;20434;-70
2023/07/10 03:45:27;;;;;;;1999.90;999.90;;;20.50;99.90;;;;;;5045366;28;20472;-71
2023/07/10 03:47:54;;;;;;;1999.90;999.90;;;20.60;99.90;;;;;;5052442;28;20462;-73
2023/07/10 03:50:20;;;;;;;1999.90;999.90;;;20.50;99.90;;;;;;5052577;28;20875;-70
2023/07/10 03:52:47;;;;;;;1999.90;999.90;;;20.60;99.90;;;;;;5052434;28;20420;-70
2023/07/10 03:55:14;;;;;;;1999.90;999.90;;;20.70;99.90;;;;;;5047977;28;20457;-69
2023/07/10 04:00:09;;;;;;;1999.90;999.90;;;20.90;99.90;;;;;;5008497;22;20484;-73
2023/07/10 04:02:35;;;;;;;1999.90;999.90;;;21.00;99.90;;;;;;4973713;28;20471;-73
2023/07/10 04:05:02;;;;;;;1999.90;999.90;;;21.00;99.90;;;;;;4977278;28;20438;-73
2023/07/10 04:07:29;;;;;;;1999.90;999.90;;;20.80;99.90;;;;;;4992250;28;20448;-73
2023/07/10 04:09:55;;;;;;;1999.90;999.90;;;20.90;99.90;;;;;;4992234;28;20420;-72
2023/07/10 04:12:22;;;;;;;1999.90;999.90;;;21.10;99.90;;;;;;4993917;28;20481;-73
2023/07/10 04:14:48;;;;;;;1999.90;999.90;;;20.90;99.90;;;;;;4992548;28;20465;-73
2023/07/10 04:17:16;;;;;;;1999.90;999.90;;;20.90;99.90;;;;;;4988699;28;20438;-71
2023/07/10 04:19:43;;;;;;;1999.90;999.90;;;20.80;99.90;;;;;;4992788;28;20768;-70
2023/07/10 04:22:10;;;;;;;1999.90;999.90;;;20.80;99.90;;;;;;4991290;28;20457;-74
2023/07/10 04:24:36;;;;;;;1999.90;999.90;;;20.80;99.90;;;;;;4991755;28;20426;-72
2023/07/10 04:27:03;;;;;;;1999.90;999.90;;;20.80;99.90;;;;;;4989418;28;20513;-72
2023/07/10 04:29:30;;;;;;;1999.90;999.90;;;20.90;99.90;;;;;;4992528;28;20414;-72
2023/07/10 04:31:57;;;;;;;1999.90;999.90;;;20.90;99.90;;;;;;4991599;28;20468;-72
2023/07/10 04:34:25;;;;;;;1999.90;999.90;;;20.80;99.90;;;;;;4991020;28;20441;-69
2023/07/10 04:36:51;;;;;;;1999.90;999.90;;;20.70;99.90;;;;;;4992468;28;20823;-72
2023/07/10 04:39:18;;;;;;;1999.90;999.90;;;20.70;99.90;;;;;;4991908;28;20554;-71
2023/07/10 04:41:44;;;;;;;1999.90;999.90;;;20.80;99.90;;;;;;4991635;28;20441;-71
2023/07/10 04:44:11;;;;;;;1999.90;999.90;;;20.70;99.90;;;;;;4989458;28;20433;-74
2023/07/10 04:46:38;;;;;;;1999.90;999.90;;;20.70;99.90;;;;;;4990985;28;20426;-70
2023/07/10 04:49:05;;;;;;;1999.90;999.90;;;20.70;99.90;;;;;;4986248;28;20497;-74
2023/07/10 04:51:33;;;;;;;1999.90;999.90;;;20.70;99.90;;;;;;4992218;28;20484;-72
2023/07/10 04:53:59;;;;;;;1999.90;999.90;;;20.60;99.90;;;;;;4989508;28;20493;-73
2023/07/10 04:56:26;;;;;;;1999.90;999.90;;;20.60;99.90;;;;;;4991262;28;20462;-73
2023/07/10 04:58:55;;;;;;;1999.90;999.90;;;20.70;99.90;;;;;;4991030;28;20492;-73
2023/07/10 05:01:23;;;;;;;1999.90;999.90;;;20.80;99.90;;;;;;4991190;28;20430;-73
2023/07/10 05:03:51;;;;;;;1999.90;999.90;;;20.90;99.90;;;;;;4991665;28;20418;-74
2023/07/10 05:06:18;;;;;;;1999.90;999.90;;;20.90;99.90;;;;;;4990778;28;20497;-73
2023/07/10 05:08:47;;;;;;;1999.90;999.90;;;20.90;99.90;;;;;;4989679;28;20484;-73
2023/07/10 05:11:14;;;;;;;1999.90;999.90;;;21.10;99.90;;;;;;4991392;28;20414;-72
2023/07/10 05:13:41;;;;;;;1999.90;999.90;;;21.20;99.90;;;;;;4991261;28;20472;-73
2023/07/10 05:16:08;;;;;;;1999.90;999.90;;;21.30;99.90;;;;;;4991287;28;20810;-73
2023/07/10 05:18:34;;;;;;;1999.90;999.90;;;21.40;99.90;;;;;;4988205;28;20790;-73
2023/07/10 05:21:01;;;;;;;1999.90;999.90;;;21.60;99.90;;;;;;4991394;28;21012;-73
2023/07/10 05:23:28;;;;;;;1999.90;999.90;;;21.80;99.90;;;;;;4991025;28;20817;-73
2023/07/10 05:25:58;;;;;;;1999.90;999.90;;;22.00;99.90;;;;;;4991765;28;20836;-72
2023/07/10 05:28:24;;;;;;;1999.90;999.90;;;21.70;99.90;;;;;;4989954;28;20528;-71
2023/07/10 05:30:51;;;;;;;1999.90;999.90;;;22.10;99.90;;;;;;4988993;28;20943;-72
2023/07/10 05:33:18;;;;;;;1999.90;999.90;;;22.20;99.90;;;;;;4990805;28;20443;-74
2023/07/10 05:35:53;;;;;;;1999.90;999.90;;;22.70;99.90;;;;;;4991660;28;20829;-70
2023/07/10 05:38:21;;;;;;;1999.90;999.90;;;22.90;99.90;;;;;;4989521;28;20448;-71
2023/07/10 05:40:48;;;;;;;1999.90;999.90;;;23.10;99.90;;;;;;4991169;28;20437;-72
2023/07/10 05:43:16;;;;;;;1999.90;999.90;;;23.70;99.90;;;;;;4989156;28;20441;-71
2023/07/10 05:45:43;;;;;;;1999.90;999.90;;;23.60;99.90;;;;;;4991307;28;20434;-74
2023/07/10 05:48:10;;;;;;;1999.90;999.90;;;23.80;99.90;;;;;;4989367;28;20463;-72
2023/07/10 05:50:37;;;;;;;1999.90;999.90;;;23.40;99.90;;;;;;4990696;28;20485;-74
2023/07/10 05:53:04;;;;;;;1999.90;999.90;;;23.70;99.90;;;;;;4990930;28;20430;-72
2023/07/10 05:55:31;;;;;;;1999.90;999.90;;;24.10;99.90;;;;;;4988657;28;21192;-72
2023/07/10 05:57:58;;;;;;;1999.90;999.90;;;24.30;99.90;;;;;;4989736;28;20441;-73
2023/07/10 06:00:26;;;;;;;1999.90;999.90;;;24.30;99.90;;;;;;4991038;28;20418;-72
2023/07/10 06:02:53;;;;;;;1999.90;999.90;;;24.30;99.90;;;;;;4990123;28;20526;-72
2023/07/10 06:05:20;;;;;;;1999.90;999.90;;;24.40;99.90;;;;;;4987778;28;20524;-73
2023/07/10 06:07:46;;;;;;;1999.90;999.90;;;24.70;99.90;;;;;;4988001;28;20442;-72
2023/07/10 06:10:13;;;;;;;1999.90;999.90;;;24.60;99.90;;;;;;4990008;28;20848;-72
2023/07/10 06:12:41;;;;;;;1999.90;999.90;;;25.10;99.90;;;;;;4989048;28;20492;-73
2023/07/10 06:15:08;;;;;;;1999.90;999.90;;;25.00;99.90;;;;;;4988486;28;20900;-72
2023/07/10 06:17:36;;;;;;;1999.90;999.90;;;25.00;99.90;;;;;;4987863;28;20860;-69
2023/07/10 06:20:03;;;;;;;1999.90;999.90;;;25.10;99.90;;;;;;4990775;28;20983;-72
2023/07/10 06:22:30;;;;;;;1999.90;999.90;;;25.00;99.90;;;;;;4990998;28;20972;-69
2023/07/10 06:24:57;;;;;;;1999.90;999.90;;;24.90;99.90;;;;;;4986959;28;21174;-72
2023/07/10 06:27:23;;;;;;;1999.90;999.90;;;24.60;99.90;;;;;;4990553;28;20418;-73
2023/07/10 06:29:51;;;;;;;1999.90;999.90;;;24.60;99.90;;;;;;4988679;28;20852;-72
2023/07/10 06:32:18;;;;;;;1999.90;999.90;;;24.80;99.90;;;;;;4990994;28;20440;-72
2023/07/10 06:34:46;;;;;;;1999.90;999.90;;;24.70;99.90;;;;;;4989365;28;20496;-71
2023/07/10 06:37:12;;;;;;;1999.90;999.90;;;24.60;99.90;;;;;;4990868;28;20422;-73
2023/07/10 06:39:39;;;;;;;1999.90;999.90;;;24.50;99.90;;;;;;4984037;28;20920;-72
2023/07/10 06:42:06;;;;;;;1999.90;999.90;;;24.40;99.90;;;;;;4988588;28;20422;-73
2023/07/10 06:44:33;;;;;;;1999.90;999.90;;;24.30;99.90;;;;;;4987595;28;20445;-70
2023/07/10 06:47:00;;;;;;;1999.90;999.90;;;24.10;99.90;;;;;;4989034;28;20434;-72
2023/07/10 06:49:27;;;;;;;1999.90;999.90;;;24.10;99.90;;;;;;4989328;28;20418;-72
2023/07/10 06:51:55;;;;;;;1999.90;999.90;;;23.90;99.90;;;;;;4990387;28;20431;-71
2023/07/10 06:54:22;;;;;;;1999.90;999.90;;;23.80;99.90;;;;;;4990100;28;20426;-72
2023/07/10 06:56:48;;;;;;;1999.90;999.90;;;23.60;99.90;;;;;;4989957;28;20434;-71
2023/07/10 06:59:16;;;;;;;1999.90;999.90;;;23.60;99.90;;;;;;4990107;28;20415;-72
2023/07/10 07:01:43;;;;;;;1999.90;999.90;;;23.60;99.90;;;;;;4989441;28;20438;-71
2023/07/10 07:04:10;;;;;;;1999.90;999.90;;;23.50;99.90;;;;;;4992105;28;20940;-70
2023/07/10 07:06:37;;;;;;;1999.90;999.90;;;23.60;99.90;;;;;;4988292;28;20852;-73
2023/07/10 07:09:05;;;;;;;1999.90;999.90;;;23.70;99.90;;;;;;4983698;28;20443;-73
2023/07/10 07:11:31;;;;;;;1999.90;999.90;;;23.70;99.90;;;;;;4989976;28;20426;-70
2023/07/10 07:13:58;;;;;;;1999.90;999.90;;;23.50;99.90;;;;;;4986570;28;20461;-71
2023/07/10 07:16:26;;;;;;;1999.90;999.90;;;23.50;99.90;;;;;;4987413;28;20461;-72
2023/07/10 07:18:52;;;;;;;1999.90;999.90;;;23.50;99.90;;;;;;4988766;28;20434;-69
2023/07/10 07:21:19;;;;;;;1999.90;999.90;;;23.20;99.90;;;;;;4988162;28;20438;-72
2023/07/10 07:23:45;;;;;;;1999.90;999.90;;;23.30;99.90;;;;;;4992309;28;20974;-72
2023/07/10 07:26:13;;;;;;;1999.90;999.90;;;23.40;99.90;;;;;;4992954;28;20484;-72
2023/07/10 07:28:40;;;;;;;1999.90;999.90;;;23.50;99.90;;;;;;4992726;28;20418;-73
2023/07/10 07:31:07;;;;;;;1999.90;999.90;;;23.50;99.90;;;;;;4993905;28;20414;-73
2023/07/10 07:33:34;;;;;;;1999.90;999.90;;;23.40;99.90;;;;;;4991077;28;20433;-73
2023/07/10 07:36:01;;;;;;;1999.90;999.90;;;23.20;99.90;;;;;;4994077;28;20418;-72
2023/07/10 07:38:28;;;;;;;1999.90;999.90;;;23.10;99.90;;;;;;4992612;28;20438;-72
2023/07/10 07:40:57;;;;;;;1999.90;999.90;;;22.90;99.90;;;;;;4989079;28;20485;-73
2023/07/10 07:43:26;;;;;;;1999.90;999.90;;;22.80;99.90;;;;;;4993121;28;20493;-72
2023/07/10 07:45:54;;;;;;;1999.90;999.90;;;22.80;99.90;;;;;;4993916;28;20422;-72
2023/07/10 07:48:21;;;;;;;1999.90;999.90;;;22.80;99.90;;;;;;4991833;28;20418;-73
2023/07/10 07:50:55;;;;;;;1999.90;999.90;;;23.00;99.90;;;;;;4992144;28;20438;-72
2023/07/10 07:53:22;;;;;;;1999.90;999.90;;;23.10;99.90;;;;;;4992696;28;20426;-72
2023/07/10 07:55:49;;;;;;;1999.90;999.90;;;23.30;99.90;;;;;;4993441;28;20464;-73
2023/07/10 07:58:15;;;;;;;1999.90;999.90;;;23.40;99.90;;;;;;4990277;28;20434;-71
2023/07/10 08:00:44;;;;;;;1999.90;999.90;;;23.30;99.90;;;;;;4991840;28;20470;-73
2023/07/10 08:03:10;;;;;;;1999.90;999.90;;;23.10;99.90;;;;;;4991188;28;20442;-74
2023/07/10 08:05:37;;;;;;;1999.90;999.90;;;23.00;99.90;;;;;;4993320;28;20417;-73
2023/07/10 08:08:05;;;;;;;1999.90;999.90;;;23.10;99.90;;;;;;4991017;28;20501;-73
2023/07/10 08:10:34;;;;;;;1999.90;999.90;;;23.20;99.90;;;;;;4989948;28;20443;-69
2023/07/10 08:13:02;;;;;;;1999.90;999.90;;;23.30;99.90;;;;;;4992310;28;21097;-73
2023/07/10 08:15:29;;;;;;;1999.90;999.90;;;23.30;99.90;;;;;;4993356;28;20461;-74
2023/07/10 08:17:57;;;;;;;1999.90;999.90;;;23.30;99.90;;;;;;4991239;28;20442;-69
2023/07/10 08:20:24;;;;;;;1999.90;999.90;;;23.40;99.90;;;;;;4992016;28;20438;-72
2023/07/10 08:22:50;;;;;;;1999.90;999.90;;;23.50;99.90;;;;;;4986839;28;20966;-73
2023/07/10 08:25:17;;;;;;;1999.90;999.90;;;23.30;99.90;;;;;;4989826;28;21135;-71
2023/07/10 08:27:45;;;;;;;1999.90;999.90;;;23.40;99.90;;;;;;4985612;28;20564;-72
2023/07/10 08:30:12;;;;;;;1999.90;999.90;;;23.50;99.90;;;;;;4991250;28;20504;-72
2023/07/10 08:32:39;;;;;;;1999.90;999.90;;;23.50;99.90;;;;;;4992747;28;20426;-72
2023/07/10 08:35:08;;;;;;;1999.90;999.90;;;23.80;99.90;;;;;;4989956;28;20844;-70
2023/07/10 08:37:36;;;;;;;1999.90;999.90;;;23.80;99.90;;;;;;4992837;28;20490;-71
2023/07/10 08:40:03;;;;;;;1999.90;999.90;;;23.80;99.90;;;;;;4991647;28;20423;-71
2023/07/10 08:42:32;;;;;;;1999.90;999.90;;;23.70;99.90;;;;;;4989167;28;20410;-71
2023/07/10 08:45:01;;;;;;;1999.90;999.90;;;23.50;99.90;;;;;;4987209;28;20477;-72
2023/07/10 08:47:33;;;;;;;1999.90;999.90;;;23.30;99.90;;;;;;4989451;28;20940;-72
2023/07/10 08:50:07;;;;;;;1999.90;999.90;;;23.20;99.90;;;;;;4991300;28;20426;-72
2023/07/10 08:52:41;;;;;;;1999.90;999.90;;;23.10;99.90;;;;;;4989336;28;20457;-70
2023/07/10 08:55:13;;;;;;;1999.90;999.90;;;22.80;99.90;;;;;;4989855;28;20414;-73
2023/07/10 08:57:44;;;;;;;1999.90;999.90;;;22.60;99.90;;;;;;4989630;28;20480;-71
2023/07/10 09:00:13;;;;;;;1999.90;999.90;;;22.60;99.90;;;;;;4989350;28;20773;-70
2023/07/10 09:02:43;;;;;;;1999.90;999.90;;;22.50;99.90;;;;;;4991025;28;20411;-71
2023/07/10 09:05:14;;;;;;;1999.90;999.90;;;22.40;99.90;;;;;;4990082;28;20893;-68
2023/07/10 09:07:45;;;;;;;1999.90;999.90;;;22.30;99.90;;;;;;4989397;28;20439;-72
2023/07/10 09:10:17;;;;;;;1999.90;999.90;;;22.30;99.90;;;;;;4991273;28;20438;-72
2023/07/10 09:12:49;;;;;;;1999.90;999.90;;;22.40;99.90;;;;;;4992081;28;20440;-69
2023/07/10 09:15:19;;;;;;;1999.90;999.90;;;22.40;99.90;;;;;;4987396;28;20438;-70
2023/07/10 09:17:57;;;;;;;1999.90;999.90;;;22.40;99.90;;;;;;4989207;28;21022;-68
2023/07/10 09:20:25;;;;;;;1999.90;999.90;;;22.30;99.90;;;;;;4992103;28;20840;-72
2023/07/10 09:22:57;;;;;;;1999.90;999.90;;;22.20;99.90;;;;;;4991901;28;20414;-72
2023/07/10 09:25:24;;;;;;;1999.90;999.90;;;22.30;99.90;;;;;;4990530;28;20439;-72
2023/07/10 09:27:51;;;;;;;1999.90;999.90;;;22.40;99.90;;;;;;4988690;28;20446;-73
2023/07/10 09:30:31;;;;;;;1999.90;999.90;;;22.30;99.90;;;;;;4991741;28;20509;-73
2023/07/10 09:33:02;;;;;;;1999.90;999.90;;;22.40;99.90;;;;;;4990771;28;20966;-69
2023/07/10 09:35:29;;;;;;;1999.90;999.90;;;22.40;99.90;;;;;;4990734;28;20442;-71
2023/07/10 09:37:57;;;;;;;1999.90;999.90;;;22.50;99.90;;;;;;4989184;28;20444;-72
2023/07/10 09:40:38;;;;;;;1999.90;999.90;;;22.40;99.90;;;;;;4991633;28;20465;-72
2023/07/10 09:43:09;;;;;;;1999.90;999.90;;;22.30;99.90;;;;;;4990184;28;20430;-72
2023/07/10 09:45:39;;;;;;;1999.90;999.90;;;22.20;99.90;;;;;;4991682;28;20469;-72
2023/07/10 09:48:14;;;;;;;1999.90;999.90;;;22.10;99.90;;;;;;4987815;28;20909;-72
2023/07/10 09:50:46;;;;;;;1999.90;999.90;;;22.10;99.90;;;;;;4991461;28;20422;-74
2023/07/10 09:53:25;;;;;;;1999.90;999.90;;;21.90;99.90;;;;;;4990890;28;20437;-72
2023/07/10 09:55:51;;;;;;;1999.90;999.90;;;22.20;99.90;;;;;;4991465;28;20509;-72
2023/07/10 09:58:18;;;;;;;1999.90;999.90;;;21.80;99.90;;;;;;4988252;28;20442;-72
2023/07/10 10:00:45;;;;;;;1999.90;999.90;;;21.80;99.90;;;;;;4991956;28;21041;-71
2023/07/10 10:03:19;;;;;;;1999.90;999.90;;;21.90;99.90;;;;;;4990987;28;20502;-72
2023/07/10 10:05:52;;;;;;;1999.90;999.90;;;22.10;99.90;;;;;;4991225;28;20414;-75
2023/07/10 10:08:25;;;;;;;1999.90;999.90;;;22.30;99.90;;;;;;4988868;28;20493;-72
2023/07/10 10:11:03;;;;;;;1999.90;999.90;;;22.50;99.90;;;;;;4989970;28;20434;-72
2023/07/10 10:13:31;;;;;;;1999.90;999.90;;;22.40;99.90;;;;;;4983286;28;20958;-72
2023/07/10 10:16:05;;;;;;;1999.90;999.90;;;22.50;99.90;;;;;;4991192;28;20489;-71
2023/07/10 10:18:42;;;;;;;1999.90;999.90;;;22.60;99.90;;;;;;4989838;28;20430;-72
2023/07/10 10:21:11;;;;;;;1999.90;999.90;;;22.70;99.90;;;;;;4991028;28;20414;-74
2023/07/10 10:23:41;;;;;;;1999.90;999.90;;;22.80;99.90;;;;;;4989085;28;20438;-71
2023/07/10 10:26:41;;;;;;;1999.90;999.90;;;22.70;99.90;;;;;;4987631;28;20434;-71
2023/07/10 10:29:19;;;;;;;1999.90;999.90;;;22.60;99.90;;;;;;4985861;28;20437;-72
2023/07/10 10:31:53;;;;;;;1999.90;999.90;;;22.60;99.90;;;;;;4990879;28;20419;-72
2023/07/10 10:34:31;;;;;;;1999.90;999.90;;;22.60;99.90;;;;;;4990479;28;20434;-73
2023/07/10 10:37:12;;;;;;;1999.90;999.90;;;22.70;99.90;;;;;;4985848;28;20983;-72
2023/07/10 10:39:46;;;;;;;1999.90;999.90;;;22.50;99.90;;;;;;4988612;28;20461;-73
2023/07/10 10:42:20;;;;;;;1999.90;999.90;;;22.50;99.90;;;;;;4990582;28;20503;-71
2023/07/10 10:44:55;;;;;;;1999.90;999.90;;;22.50;99.90;;;;;;4990314;28;20414;-73
2023/07/10 10:47:35;;;;;;;1999.90;999.90;;;22.50;99.90;;;;;;4991475;28;20462;-73
2023/07/10 10:50:27;;;;;;;1999.90;999.90;;;22.50;99.90;;;;;;4992516;28;20879;-74
2023/07/10 10:53:14;;;;;;;1999.90;999.90;;;22.60;99.90;;;;;;4992155;28;20473;-71
2023/07/10 10:55:52;;;;;;;1999.90;999.90;;;22.70;99.90;;;;;;4975502;28;20505;-72
2023/07/10 10:58:34;;;;;;;1999.90;999.90;;;22.80;99.90;;;;;;4981645;28;20469;-72
2023/07/10 11:01:17;;;;;;;1999.90;999.90;;;22.60;99.90;;;;;;4988816;28;20497;-77
2023/07/10 11:03:48;;;;;;;1999.90;999.90;;;22.70;99.90;;;;;;4993882;28;20759;-71
2023/07/10 11:06:33;;;;;;;1999.90;999.90;;;22.40;99.90;;;;;;4992736;28;20421;-72
2023/07/10 11:09:04;;;;;;;1999.90;999.90;;;22.30;99.90;;;;;;4990827;28;20450;-74
2023/07/10 11:11:33;;;;;;;1999.90;999.90;;;22.20;99.90;;;;;;4987205;28;20426;-71
2023/07/10 11:14:02;;;;;;;1999.90;999.90;;;22.30;99.90;;;;;;4993814;28;20442;-73
2023/07/10 11:16:31;;;;;;;1999.90;999.90;;;22.50;99.90;;;;;;4992854;28;20426;-69
2023/07/10 11:18:58;;;;;;;1999.90;999.90;;;22.90;99.90;;;;;;4991146;28;20844;-71
2023/07/10 11:21:24;;;;;;;1999.90;999.90;;;23.30;99.90;;;;;;4991510;28;20439;-73
2023/07/10 11:23:51;;;;;;;1999.90;999.90;;;23.30;99.90;;;;;;4992103;28;20416;-76
2023/07/10 11:26:22;;;;;;;1999.90;999.90;;;23.70;99.90;;;;;;4992444;28;20466;-72
2023/07/10 11:28:53;;;;;;;1999.90;999.90;;;24.00;99.90;;;;;;4993522;28;20434;-72
2023/07/10 11:31:37;;;;;;;1999.90;999.90;;;24.10;99.90;;;;;;4984477;28;20438;-72
2023/07/10 11:34:37;;;;;;;1999.90;999.90;;;24.10;99.90;;;;;;4990058;28;20434;-72
2023/07/10 11:37:04;;;;;;;1999.90;999.90;;;24.20;99.90;;;;;;4989861;28;20434;-73
2023/07/10 11:39:33;;;;;;;1999.90;999.90;;;24.30;99.90;;;;;;4990621;28;20445;-68
2023/07/10 11:42:15;;;;;;;1999.90;999.90;;;24.30;99.90;;;;;;4993438;28;20793;-72
2023/07/10 11:44:46;;;;;;;1999.90;999.90;;;24.50;99.90;;;;;;4986410;28;20445;-69
2023/07/10 11:47:22;;;;;;;1999.90;999.90;;;24.40;99.90;;;;;;4989828;28;20473;-74
2023/07/10 11:50:16;;;;;;;1999.90;999.90;;;24.30;99.90;;;;;;4992763;28;20430;-72
2023/07/10 11:52:43;;;;;;;1999.90;999.90;;;24.30;99.90;;;;;;4990686;28;20442;-73
2023/07/10 11:55:24;;;;;;;1999.90;999.90;;;24.30;99.90;;;;;;4989733;28;20431;-70
2023/07/10 11:58:26;;;;;;;1999.90;999.90;;;24.80;99.90;;;;;;4989721;28;20434;-71
2023/07/10 12:01:12;;;;;;;1999.90;999.90;;;25.30;99.90;;;;;;4984127;28;20441;-73
2023/07/10 12:03:38;;;;;;;1999.90;999.90;;;25.90;99.90;;;;;;4984672;28;20418;-71
2023/07/10 12:06:15;;;;;;;1999.90;999.90;;;25.80;99.90;;;;;;4988131;28;20496;-72
2023/07/10 12:08:42;;;;;;;1999.90;999.90;;;25.90;99.90;;;;;;4993577;28;20422;-73
2023/07/10 12:11:26;;;;;;;1999.90;999.90;;;25.40;99.90;;;;;;4992761;28;20442;-73